You are not logged in, Click here to log in
維也納國際機場VIE / LOWW 奧地利和首都維也納東南方18公里
ICAO: LOWW Country: 奧地利和首都維也納東南方18公里
Latitude: 48.1158 Longitude: 16.5666
Total Arrivals: 25 Total Departures: 22
Latest Arrival: A3880 (LGAV-LOWW)Arthur. Kung Latest Departure: DE791 (LOWW-LROP)Arthur. Kung
Scenery:
METAR : LOWW 240550Z VRB01KT 2200 0500S R16/P1500N R29/P1500U BCFG FEW000 SCT001 09/08 Q1016 TEMPO 3000

維也納國際機場VIE

You are accessing this site from IP address 34.201.9.19. Virtual Airline. CMS by phpVMS.Website designed by Zumeweb and edited by Theo Bearman.
There is 0 User(s) Online: | and 19 Guest(s) Online.
All information on this site is for fight simulation purposes only. This site is for flight logging for pilots of Virtual Airline&模擬飛行論壇 FlySim only.